sensor_id;sensor_type;location;lat;lon;timestamp;P1;durP1;ratioP1;P2;durP2;ratioP2
57778;SDS011;43608;49.486;9.640;2024-01-06T00:00:05;7.60;;;3.75;;
57778;SDS011;43608;49.486;9.640;2024-01-06T00:00:35;7.90;;;4.35;;
57778;SDS011;43608;49.486;9.640;2024-01-06T00:01:06;8.38;;;4.13;;
57778;SDS011;43608;49.486;9.640;2024-01-06T00:01:41;8.15;;;4.18;;
57778;SDS011;43608;49.486;9.640;2024-01-06T00:02:11;9.40;;;4.28;;
57778;SDS011;43608;49.486;9.640;2024-01-06T00:02:41;7.03;;;3.72;;
57778;SDS011;43608;49.486;9.640;2024-01-06T00:03:12;7.55;;;4.20;;
57778;SDS011;43608;49.486;9.640;2024-01-06T00:03:43;6.30;;;3.75;;
57778;SDS011;43608;49.486;9.640;2024-01-06T00:04:14;7.35;;;3.97;;
57778;SDS011;43608;49.486;9.640;2024-01-06T00:04:44;8.52;;;3.97;;
57778;SDS011;43608;49.486;9.640;2024-01-06T00:05:15;7.10;;;3.92;;
57778;SDS011;43608;49.486;9.640;2024-01-06T00:05:45;8.38;;;3.70;;
57778;SDS011;43608;49.486;9.640;2024-01-06T00:06:15;8.23;;;3.72;;
57778;SDS011;43608;49.486;9.640;2024-01-06T00:06:46;8.27;;;4.20;;
57778;SDS011;43608;49.486;9.640;2024-01-06T00:07:16;7.57;;;3.72;;
57778;SDS011;43608;49.486;9.640;2024-01-06T00:07:47;6.60;;;3.70;;
57778;SDS011;43608;49.486;9.640;2024-01-06T00:08:17;7.22;;;3.67;;
57778;SDS011;43608;49.486;9.640;2024-01-06T00:08:48;6.47;;;3.67;;
57778;SDS011;43608;49.486;9.640;2024-01-06T00:09:23;6.47;;;3.58;;
57778;SDS011;43608;49.486;9.640;2024-01-06T00:09:54;5.55;;;3.63;;
57778;SDS011;43608;49.486;9.640;2024-01-06T00:10:24;7.03;;;3.92;;
57778;SDS011;43608;49.486;9.640;2024-01-06T00:10:56;8.32;;;3.75;;
57778;SDS011;43608;49.486;9.640;2024-01-06T00:11:27;8.18;;;3.85;;
57778;SDS011;43608;49.486;9.640;2024-01-06T00:11:57;8.07;;;3.90;;
57778;SDS011;43608;49.486;9.640;2024-01-06T00:12:28;7.50;;;3.88;;
57778;SDS011;43608;49.486;9.640;2024-01-06T00:12:59;6.10;;;3.58;;
57778;SDS011;43608;49.486;9.640;2024-01-06T00:13:29;8.57;;;4.20;;
57778;SDS011;43608;49.486;9.640;2024-01-06T00:13:59;7.18;;;3.80;;
57778;SDS011;43608;49.486;9.640;2024-01-06T00:14:30;7.35;;;3.83;;
57778;SDS011;43608;49.486;9.640;2024-01-06T00:15:01;6.82;;;3.80;;
57778;SDS011;43608;49.486;9.640;2024-01-06T00:15:31;7.20;;;3.78;;
57778;SDS011;43608;49.486;9.640;2024-01-06T00:16:02;7.03;;;4.15;;
57778;SDS011;43608;49.486;9.640;2024-01-06T00:16:33;6.70;;;3.70;;
57778;SDS011;43608;49.486;9.640;2024-01-06T00:17:03;6.57;;;3.60;;
57778;SDS011;43608;49.486;9.640;2024-01-06T00:17:33;7.93;;;3.75;;
57778;SDS011;43608;49.486;9.640;2024-01-06T00:18:04;8.32;;;4.03;;
57778;SDS011;43608;49.486;9.640;2024-01-06T00:18:34;7.88;;;3.83;;
57778;SDS011;43608;49.486;9.640;2024-01-06T00:19:05;9.07;;;3.92;;
57778;SDS011;43608;49.486;9.640;2024-01-06T00:19:35;6.38;;;3.13;;
57778;SDS011;43608;49.486;9.640;2024-01-06T00:20:06;8.88;;;3.92;;
57778;SDS011;43608;49.486;9.640;2024-01-06T00:20:37;7.40;;;3.90;;
57778;SDS011;43608;49.486;9.640;2024-01-06T00:21:07;7.00;;;3.78;;
57778;SDS011;43608;49.486;9.640;2024-01-06T00:21:38;6.57;;;3.30;;
57778;SDS011;43608;49.486;9.640;2024-01-06T00:22:09;8.20;;;3.72;;
57778;SDS011;43608;49.486;9.640;2024-01-06T00:22:39;6.85;;;3.47;;
57778;SDS011;43608;49.486;9.640;2024-01-06T00:23:11;6.43;;;3.60;;
57778;SDS011;43608;49.486;9.640;2024-01-06T00:23:41;6.15;;;3.42;;
57778;SDS011;43608;49.486;9.640;2024-01-06T00:24:12;6.28;;;3.58;;
57778;SDS011;43608;49.486;9.640;2024-01-06T00:24:42;5.32;;;2.85;;
57778;SDS011;43608;49.486;9.640;2024-01-06T00:25:12;6.43;;;3.45;;
57778;SDS011;43608;49.486;9.640;2024-01-06T00:25:43;7.72;;;3.90;;
57778;SDS011;43608;49.486;9.640;2024-01-06T00:26:13;6.10;;;3.55;;
57778;SDS011;43608;49.486;9.640;2024-01-06T00:26:44;6.95;;;3.55;;
57778;SDS011;43608;49.486;9.640;2024-01-06T00:27:14;5.75;;;3.03;;
57778;SDS011;43608;49.486;9.640;2024-01-06T00:27:46;6.05;;;3.17;;
57778;SDS011;43608;49.486;9.640;2024-01-06T00:28:16;5.95;;;3.40;;
57778;SDS011;43608;49.486;9.640;2024-01-06T00:28:47;6.30;;;3.50;;
57778;SDS011;43608;49.486;9.640;2024-01-06T00:29:19;6.18;;;3.30;;
57778;SDS011;43608;49.486;9.640;2024-01-06T00:29:49;6.15;;;3.20;;
57778;SDS011;43608;49.486;9.640;2024-01-06T00:30:19;5.68;;;3.63;;
57778;SDS011;43608;49.486;9.640;2024-01-06T00:30:50;7.07;;;3.20;;
57778;SDS011;43608;49.486;9.640;2024-01-06T00:31:20;6.07;;;3.28;;
57778;SDS011;43608;49.486;9.640;2024-01-06T00:31:52;5.72;;;3.33;;
57778;SDS011;43608;49.486;9.640;2024-01-06T00:32:22;7.75;;;3.72;;
57778;SDS011;43608;49.486;9.640;2024-01-06T00:32:53;6.82;;;3.53;;
57778;SDS011;43608;49.486;9.640;2024-01-06T00:33:23;5.85;;;3.38;;
57778;SDS011;43608;49.486;9.640;2024-01-06T00:33:54;6.47;;;3.53;;
57778;SDS011;43608;49.486;9.640;2024-01-06T00:34:24;6.10;;;3.33;;
57778;SDS011;43608;49.486;9.640;2024-01-06T00:34:55;7.88;;;3.60;;
57778;SDS011;43608;49.486;9.640;2024-01-06T00:35:25;6.18;;;3.38;;
57778;SDS011;43608;49.486;9.640;2024-01-06T00:35:55;6.18;;;3.03;;
57778;SDS011;43608;49.486;9.640;2024-01-06T00:36:26;6.68;;;3.58;;
57778;SDS011;43608;49.486;9.640;2024-01-06T00:36:56;7.68;;;3.47;;
57778;SDS011;43608;49.486;9.640;2024-01-06T00:37:27;6.28;;;3.58;;
57778;SDS011;43608;49.486;9.640;2024-01-06T00:37:57;4.95;;;3.10;;
57778;SDS011;43608;49.486;9.640;2024-01-06T00:38:30;5.82;;;3.15;;
57778;SDS011;43608;49.486;9.640;2024-01-06T00:39:00;6.22;;;3.25;;
57778;SDS011;43608;49.486;9.640;2024-01-06T00:39:31;7.43;;;3.60;;
57778;SDS011;43608;49.486;9.640;2024-01-06T00:40:01;7.13;;;3.40;;
57778;SDS011;43608;49.486;9.640;2024-01-06T00:40:31;7.18;;;3.70;;
57778;SDS011;43608;49.486;9.640;2024-01-06T00:41:02;6.80;;;3.25;;
57778;SDS011;43608;49.486;9.640;2024-01-06T00:41:33;5.97;;;3.25;;
57778;SDS011;43608;49.486;9.640;2024-01-06T00:42:03;8.25;;;3.70;;
57778;SDS011;43608;49.486;9.640;2024-01-06T00:42:34;5.70;;;3.28;;
57778;SDS011;43608;49.486;9.640;2024-01-06T00:43:04;7.95;;;3.80;;
57778;SDS011;43608;49.486;9.640;2024-01-06T00:43:35;6.47;;;3.55;;
57778;SDS011;43608;49.486;9.640;2024-01-06T00:44:05;5.90;;;3.35;;
57778;SDS011;43608;49.486;9.640;2024-01-06T00:44:35;7.60;;;3.83;;
57778;SDS011;43608;49.486;9.640;2024-01-06T00:45:07;5.78;;;3.10;;
57778;SDS011;43608;49.486;9.640;2024-01-06T00:45:37;6.00;;;3.60;;
57778;SDS011;43608;49.486;9.640;2024-01-06T00:46:08;5.97;;;3.60;;
57778;SDS011;43608;49.486;9.640;2024-01-06T00:46:38;6.00;;;3.60;;
57778;SDS011;43608;49.486;9.640;2024-01-06T00:47:09;5.72;;;3.38;;
57778;SDS011;43608;49.486;9.640;2024-01-06T00:47:39;6.15;;;3.40;;
57778;SDS011;43608;49.486;9.640;2024-01-06T00:48:10;5.85;;;3.30;;
57778;SDS011;43608;49.486;9.640;2024-01-06T00:48:41;5.55;;;3.30;;
57778;SDS011;43608;49.486;9.640;2024-01-06T00:49:11;5.78;;;3.30;;
57778;SDS011;43608;49.486;9.640;2024-01-06T00:49:42;6.63;;;3.55;;
57778;SDS011;43608;49.486;9.640;2024-01-06T00:50:12;6.57;;;3.72;;
57778;SDS011;43608;49.486;9.640;2024-01-06T00:50:42;8.52;;;3.35;;
57778;SDS011;43608;49.486;9.640;2024-01-06T00:51:13;7.15;;;3.80;;
57778;SDS011;43608;49.486;9.640;2024-01-06T00:51:43;5.55;;;3.10;;
57778;SDS011;43608;49.486;9.640;2024-01-06T00:52:13;7.28;;;3.72;;
57778;SDS011;43608;49.486;9.640;2024-01-06T00:52:44;6.10;;;3.30;;
57778;SDS011;43608;49.486;9.640;2024-01-06T00:53:15;6.03;;;3.38;;
57778;SDS011;43608;49.486;9.640;2024-01-06T00:53:45;7.97;;;3.70;;
57778;SDS011;43608;49.486;9.640;2024-01-06T00:54:16;5.63;;;3.45;;
57778;SDS011;43608;49.486;9.640;2024-01-06T00:54:46;6.90;;;3.65;;
57778;SDS011;43608;49.486;9.640;2024-01-06T00:55:17;7.40;;;3.45;;
57778;SDS011;43608;49.486;9.640;2024-01-06T00:55:48;7.03;;;3.78;;
57778;SDS011;43608;49.486;9.640;2024-01-06T00:56:18;6.65;;;3.55;;
57778;SDS011;43608;49.486;9.640;2024-01-06T00:56:48;5.53;;;3.20;;
57778;SDS011;43608;49.486;9.640;2024-01-06T00:57:19;5.80;;;3.70;;
57778;SDS011;43608;49.486;9.640;2024-01-06T00:57:54;6.43;;;3.42;;
57778;SDS011;43608;49.486;9.640;2024-01-06T00:58:24;6.78;;;3.40;;
57778;SDS011;43608;49.486;9.640;2024-01-06T00:58:54;6.28;;;3.60;;
57778;SDS011;43608;49.486;9.640;2024-01-06T00:59:25;5.63;;;3.28;;
57778;SDS011;43608;49.486;9.640;2024-01-06T00:59:55;6.47;;;3.60;;
57778;SDS011;43608;49.486;9.640;2024-01-06T01:00:26;7.80;;;3.88;;
57778;SDS011;43608;49.486;9.640;2024-01-06T01:00:57;6.38;;;3.53;;
57778;SDS011;43608;49.486;9.640;2024-01-06T01:01:27;6.57;;;3.40;;
57778;SDS011;43608;49.486;9.640;2024-01-06T01:01:58;7.07;;;3.67;;
57778;SDS011;43608;49.486;9.640;2024-01-06T01:02:28;8.18;;;3.83;;
57778;SDS011;43608;49.486;9.640;2024-01-06T01:02:58;6.57;;;3.67;;
57778;SDS011;43608;49.486;9.640;2024-01-06T01:03:29;6.78;;;3.70;;
57778;SDS011;43608;49.486;9.640;2024-01-06T01:03:59;7.32;;;3.83;;
57778;SDS011;43608;49.486;9.640;2024-01-06T01:04:29;6.63;;;3.60;;
57778;SDS011;43608;49.486;9.640;2024-01-06T01:05:00;8.00;;;3.50;;
57778;SDS011;43608;49.486;9.640;2024-01-06T01:05:31;5.63;;;3.35;;
57778;SDS011;43608;49.486;9.640;2024-01-06T01:06:02;6.97;;;3.92;;
57778;SDS011;43608;49.486;9.640;2024-01-06T01:06:32;6.43;;;3.67;;
57778;SDS011;43608;49.486;9.640;2024-01-06T01:07:03;6.22;;;3.50;;
57778;SDS011;43608;49.486;9.640;2024-01-06T01:07:33;7.35;;;3.63;;
57778;SDS011;43608;49.486;9.640;2024-01-06T01:08:04;7.88;;;3.75;;
57778;SDS011;43608;49.486;9.640;2024-01-06T01:08:34;5.90;;;3.30;;
57778;SDS011;43608;49.486;9.640;2024-01-06T01:09:05;7.95;;;3.65;;
57778;SDS011;43608;49.486;9.640;2024-01-06T01:09:35;5.95;;;3.42;;
57778;SDS011;43608;49.486;9.640;2024-01-06T01:10:06;6.68;;;3.65;;
57778;SDS011;43608;49.486;9.640;2024-01-06T01:10:36;8.15;;;3.60;;
57778;SDS011;43608;49.486;9.640;2024-01-06T01:11:06;7.47;;;3.75;;
57778;SDS011;43608;49.486;9.640;2024-01-06T01:11:37;6.65;;;3.90;;
57778;SDS011;43608;49.486;9.640;2024-01-06T01:12:07;7.20;;;3.80;;
57778;SDS011;43608;49.486;9.640;2024-01-06T01:12:38;5.63;;;3.30;;
57778;SDS011;43608;49.486;9.640;2024-01-06T01:13:09;6.07;;;3.22;;
57778;SDS011;43608;49.486;9.640;2024-01-06T01:13:40;6.68;;;3.92;;
57778;SDS011;43608;49.486;9.640;2024-01-06T01:14:10;7.90;;;3.72;;
57778;SDS011;43608;49.486;9.640;2024-01-06T01:14:40;7.50;;;4.18;;
57778;SDS011;43608;49.486;9.640;2024-01-06T01:15:11;7.07;;;3.92;;
57778;SDS011;43608;49.486;9.640;2024-01-06T01:15:41;7.65;;;4.00;;
57778;SDS011;43608;49.486;9.640;2024-01-06T01:16:11;8.35;;;4.13;;
57778;SDS011;43608;49.486;9.640;2024-01-06T01:16:42;7.88;;;4.43;;
57778;SDS011;43608;49.486;9.640;2024-01-06T01:17:12;8.48;;;4.10;;
57778;SDS011;43608;49.486;9.640;2024-01-06T01:17:43;7.47;;;4.38;;
57778;SDS011;43608;49.486;9.640;2024-01-06T01:18:14;9.30;;;4.45;;
57778;SDS011;43608;49.486;9.640;2024-01-06T01:18:44;7.50;;;4.22;;
57778;SDS011;43608;49.486;9.640;2024-01-06T01:19:14;7.68;;;4.30;;
57778;SDS011;43608;49.486;9.640;2024-01-06T01:19:45;9.25;;;4.82;;
57778;SDS011;43608;49.486;9.640;2024-01-06T01:20:16;6.93;;;3.97;;
57778;SDS011;43608;49.486;9.640;2024-01-06T01:20:46;6.60;;;3.92;;
57778;SDS011;43608;49.486;9.640;2024-01-06T01:21:16;8.07;;;4.60;;
57778;SDS011;43608;49.486;9.640;2024-01-06T01:21:47;7.70;;;4.35;;
57778;SDS011;43608;49.486;9.640;2024-01-06T01:22:17;8.88;;;4.75;;
57778;SDS011;43608;49.486;9.640;2024-01-06T01:22:48;8.63;;;4.50;;
57778;SDS011;43608;49.486;9.640;2024-01-06T01:23:18;8.40;;;4.00;;
57778;SDS011;43608;49.486;9.640;2024-01-06T01:23:48;8.95;;;4.35;;
57778;SDS011;43608;49.486;9.640;2024-01-06T01:24:19;8.10;;;4.53;;
57778;SDS011;43608;49.486;9.640;2024-01-06T01:24:49;6.47;;;4.00;;
57778;SDS011;43608;49.486;9.640;2024-01-06T01:25:19;9.73;;;5.10;;
57778;SDS011;43608;49.486;9.640;2024-01-06T01:25:50;8.40;;;4.55;;
57778;SDS011;43608;49.486;9.640;2024-01-06T01:26:20;7.07;;;4.18;;
57778;SDS011;43608;49.486;9.640;2024-01-06T01:26:51;8.27;;;4.50;;
57778;SDS011;43608;49.486;9.640;2024-01-06T01:27:21;8.88;;;4.65;;
57778;SDS011;43608;49.486;9.640;2024-01-06T01:27:52;7.68;;;4.30;;
57778;SDS011;43608;49.486;9.640;2024-01-06T01:28:22;8.45;;;4.50;;
57778;SDS011;43608;49.486;9.640;2024-01-06T01:28:52;7.15;;;4.38;;
57778;SDS011;43608;49.486;9.640;2024-01-06T01:29:23;9.43;;;4.60;;
57778;SDS011;43608;49.486;9.640;2024-01-06T01:29:53;7.32;;;4.13;;
57778;SDS011;43608;49.486;9.640;2024-01-06T01:30:24;8.65;;;4.35;;
57778;SDS011;43608;49.486;9.640;2024-01-06T01:30:55;9.85;;;4.75;;
57778;SDS011;43608;49.486;9.640;2024-01-06T01:31:25;9.23;;;4.53;;
57778;SDS011;43608;49.486;9.640;2024-01-06T01:31:56;8.82;;;4.63;;
57778;SDS011;43608;49.486;9.640;2024-01-06T01:32:26;7.60;;;4.40;;
57778;SDS011;43608;49.486;9.640;2024-01-06T01:32:56;8.43;;;4.68;;
57778;SDS011;43608;49.486;9.640;2024-01-06T01:33:27;8.18;;;4.68;;
57778;SDS011;43608;49.486;9.640;2024-01-06T01:33:57;7.72;;;4.50;;
57778;SDS011;43608;49.486;9.640;2024-01-06T01:34:27;8.40;;;4.85;;
57778;SDS011;43608;49.486;9.640;2024-01-06T01:34:58;9.45;;;4.80;;
57778;SDS011;43608;49.486;9.640;2024-01-06T01:35:28;8.23;;;4.70;;
57778;SDS011;43608;49.486;9.640;2024-01-06T01:35:58;8.90;;;4.70;;
57778;SDS011;43608;49.486;9.640;2024-01-06T01:36:29;8.10;;;4.35;;
57778;SDS011;43608;49.486;9.640;2024-01-06T01:36:59;8.35;;;4.50;;
57778;SDS011;43608;49.486;9.640;2024-01-06T01:37:30;7.70;;;4.20;;
57778;SDS011;43608;49.486;9.640;2024-01-06T01:38:00;7.28;;;4.47;;
57778;SDS011;43608;49.486;9.640;2024-01-06T01:38:30;8.38;;;4.05;;
57778;SDS011;43608;49.486;9.640;2024-01-06T01:39:01;7.20;;;4.25;;
57778;SDS011;43608;49.486;9.640;2024-01-06T01:39:31;6.82;;;3.80;;
57778;SDS011;43608;49.486;9.640;2024-01-06T01:40:01;7.05;;;3.97;;
57778;SDS011;43608;49.486;9.640;2024-01-06T01:40:32;6.20;;;3.70;;
57778;SDS011;43608;49.486;9.640;2024-01-06T01:41:02;5.88;;;3.50;;
57778;SDS011;43608;49.486;9.640;2024-01-06T01:41:33;5.38;;;3.50;;
57778;SDS011;43608;49.486;9.640;2024-01-06T01:42:03;5.75;;;3.53;;
57778;SDS011;43608;49.486;9.640;2024-01-06T01:42:33;6.20;;;3.60;;
57778;SDS011;43608;49.486;9.640;2024-01-06T01:43:04;5.75;;;3.33;;
57778;SDS011;43608;49.486;9.640;2024-01-06T01:43:34;5.97;;;3.45;;
57778;SDS011;43608;49.486;9.640;2024-01-06T01:44:05;5.35;;;3.22;;
57778;SDS011;43608;49.486;9.640;2024-01-06T01:44:35;6.55;;;3.72;;
57778;SDS011;43608;49.486;9.640;2024-01-06T01:45:05;5.75;;;3.33;;
57778;SDS011;43608;49.486;9.640;2024-01-06T01:45:36;5.68;;;3.50;;
57778;SDS011;43608;49.486;9.640;2024-01-06T01:46:06;6.15;;;3.28;;
57778;SDS011;43608;49.486;9.640;2024-01-06T01:46:37;5.53;;;3.42;;
57778;SDS011;43608;49.486;9.640;2024-01-06T01:47:08;5.15;;;3.10;;
57778;SDS011;43608;49.486;9.640;2024-01-06T01:47:38;5.20;;;3.20;;
57778;SDS011;43608;49.486;9.640;2024-01-06T01:48:09;4.55;;;2.72;;
57778;SDS011;43608;49.486;9.640;2024-01-06T01:48:39;5.00;;;2.97;;
57778;SDS011;43608;49.486;9.640;2024-01-06T01:49:10;5.03;;;3.10;;
57778;SDS011;43608;49.486;9.640;2024-01-06T01:49:40;5.10;;;2.92;;
57778;SDS011;43608;49.486;9.640;2024-01-06T01:50:11;4.80;;;3.03;;
57778;SDS011;43608;49.486;9.640;2024-01-06T01:50:43;5.15;;;3.10;;
57778;SDS011;43608;49.486;9.640;2024-01-06T01:51:13;4.15;;;2.70;;
57778;SDS011;43608;49.486;9.640;2024-01-06T01:51:44;4.53;;;2.78;;
57778;SDS011;43608;49.486;9.640;2024-01-06T01:52:14;4.97;;;3.03;;
57778;SDS011;43608;49.486;9.640;2024-01-06T01:52:46;4.25;;;2.83;;
57778;SDS011;43608;49.486;9.640;2024-01-06T01:53:16;5.85;;;3.10;;
57778;SDS011;43608;49.486;9.640;2024-01-06T01:53:47;5.30;;;2.97;;
57778;SDS011;43608;49.486;9.640;2024-01-06T01:54:19;4.97;;;2.78;;
57778;SDS011;43608;49.486;9.640;2024-01-06T01:54:50;6.32;;;3.20;;
57778;SDS011;43608;49.486;9.640;2024-01-06T01:55:22;4.60;;;2.70;;
57778;SDS011;43608;49.486;9.640;2024-01-06T01:55:52;4.70;;;3.00;;
57778;SDS011;43608;49.486;9.640;2024-01-06T01:56:24;4.88;;;3.10;;
57778;SDS011;43608;49.486;9.640;2024-01-06T01:56:56;4.95;;;2.78;;
57778;SDS011;43608;49.486;9.640;2024-01-06T01:57:26;4.68;;;2.90;;
57778;SDS011;43608;49.486;9.640;2024-01-06T01:57:57;5.47;;;2.80;;
57778;SDS011;43608;49.486;9.640;2024-01-06T01:58:28;4.10;;;2.80;;
57778;SDS011;43608;49.486;9.640;2024-01-06T01:58:58;4.88;;;2.83;;
57778;SDS011;43608;49.486;9.640;2024-01-06T01:59:29;6.05;;;2.83;;
57778;SDS011;43608;49.486;9.640;2024-01-06T02:00:00;4.40;;;2.60;;
57778;SDS011;43608;49.486;9.640;2024-01-06T02:00:31;5.18;;;2.92;;
57778;SDS011;43608;49.486;9.640;2024-01-06T02:01:01;4.40;;;2.83;;
57778;SDS011;43608;49.486;9.640;2024-01-06T02:01:32;4.55;;;2.72;;
57778;SDS011;43608;49.486;9.640;2024-01-06T02:02:03;4.20;;;2.60;;
57778;SDS011;43608;49.486;9.640;2024-01-06T02:02:34;4.22;;;2.70;;
57778;SDS011;43608;49.486;9.640;2024-01-06T02:03:05;4.70;;;2.65;;
57778;SDS011;43608;49.486;9.640;2024-01-06T02:03:35;3.90;;;2.70;;
57778;SDS011;43608;49.486;9.640;2024-01-06T02:04:06;4.25;;;2.85;;
57778;SDS011;43608;49.486;9.640;2024-01-06T02:04:36;3.78;;;2.40;;
57778;SDS011;43608;49.486;9.640;2024-01-06T02:05:07;4.97;;;2.67;;
57778;SDS011;43608;49.486;9.640;2024-01-06T02:05:37;4.63;;;2.70;;
57778;SDS011;43608;49.486;9.640;2024-01-06T02:06:07;4.07;;;2.65;;
57778;SDS011;43608;49.486;9.640;2024-01-06T02:06:38;4.10;;;2.53;;
57778;SDS011;43608;49.486;9.640;2024-01-06T02:07:08;3.95;;;2.80;;
57778;SDS011;43608;49.486;9.640;2024-01-06T02:07:39;4.78;;;2.70;;
57778;SDS011;43608;49.486;9.640;2024-01-06T02:08:10;4.35;;;2.67;;
57778;SDS011;43608;49.486;9.640;2024-01-06T02:08:41;3.63;;;2.70;;
57778;SDS011;43608;49.486;9.640;2024-01-06T02:09:11;4.00;;;2.67;;
57778;SDS011;43608;49.486;9.640;2024-01-06T02:09:41;4.90;;;2.88;;
57778;SDS011;43608;49.486;9.640;2024-01-06T02:10:12;5.65;;;3.10;;
57778;SDS011;43608;49.486;9.640;2024-01-06T02:10:42;5.22;;;3.13;;
57778;SDS011;43608;49.486;9.640;2024-01-06T02:11:13;4.32;;;2.60;;
57778;SDS011;43608;49.486;9.640;2024-01-06T02:11:43;4.15;;;2.85;;
57778;SDS011;43608;49.486;9.640;2024-01-06T02:12:13;4.38;;;2.95;;
57778;SDS011;43608;49.486;9.640;2024-01-06T02:12:44;3.85;;;2.60;;
57778;SDS011;43608;49.486;9.640;2024-01-06T02:13:14;5.15;;;2.90;;
57778;SDS011;43608;49.486;9.640;2024-01-06T02:13:44;4.70;;;2.90;;
57778;SDS011;43608;49.486;9.640;2024-01-06T02:14:15;4.30;;;2.92;;
57778;SDS011;43608;49.486;9.640;2024-01-06T02:14:45;5.32;;;3.08;;
57778;SDS011;43608;49.486;9.640;2024-01-06T02:15:15;4.70;;;2.90;;
57778;SDS011;43608;49.486;9.640;2024-01-06T02:15:46;5.78;;;3.00;;
57778;SDS011;43608;49.486;9.640;2024-01-06T02:16:16;5.05;;;3.00;;
57778;SDS011;43608;49.486;9.640;2024-01-06T02:16:47;4.82;;;2.92;;
57778;SDS011;43608;49.486;9.640;2024-01-06T02:17:17;5.15;;;3.10;;
57778;SDS011;43608;49.486;9.640;2024-01-06T02:17:47;4.63;;;2.85;;
57778;SDS011;43608;49.486;9.640;2024-01-06T02:18:18;5.15;;;3.05;;
57778;SDS011;43608;49.486;9.640;2024-01-06T02:18:48;4.40;;;2.80;;
57778;SDS011;43608;49.486;9.640;2024-01-06T02:19:19;5.50;;;3.05;;
57778;SDS011;43608;49.486;9.640;2024-01-06T02:19:49;4.68;;;2.80;;
57778;SDS011;43608;49.486;9.640;2024-01-06T02:20:20;3.60;;;2.50;;
57778;SDS011;43608;49.486;9.640;2024-01-06T02:20:54;5.13;;;2.90;;
57778;SDS011;43608;49.486;9.640;2024-01-06T02:21:28;5.32;;;3.13;;
57778;SDS011;43608;49.486;9.640;2024-01-06T02:22:01;4.07;;;2.50;;
57778;SDS011;43608;49.486;9.640;2024-01-06T02:22:31;4.13;;;2.65;;
57778;SDS011;43608;49.486;9.640;2024-01-06T02:23:02;5.03;;;3.10;;
57778;SDS011;43608;49.486;9.640;2024-01-06T02:23:34;3.70;;;2.47;;
57778;SDS011;43608;49.486;9.640;2024-01-06T02:24:05;4.38;;;2.70;;
57778;SDS011;43608;49.486;9.640;2024-01-06T02:24:35;3.15;;;2.50;;
57778;SDS011;43608;49.486;9.640;2024-01-06T02:25:06;4.00;;;2.60;;
57778;SDS011;43608;49.486;9.640;2024-01-06T02:25:42;3.88;;;2.50;;
57778;SDS011;43608;49.486;9.640;2024-01-06T02:26:12;3.92;;;2.55;;
57778;SDS011;43608;49.486;9.640;2024-01-06T02:26:44;3.97;;;2.47;;
57778;SDS011;43608;49.486;9.640;2024-01-06T02:27:15;4.40;;;2.70;;
57778;SDS011;43608;49.486;9.640;2024-01-06T02:27:45;3.72;;;2.60;;
57778;SDS011;43608;49.486;9.640;2024-01-06T02:28:16;3.90;;;2.50;;
57778;SDS011;43608;49.486;9.640;2024-01-06T02:28:46;3.28;;;2.35;;
57778;SDS011;43608;49.486;9.640;2024-01-06T02:29:17;3.55;;;2.47;;
57778;SDS011;43608;49.486;9.640;2024-01-06T02:29:48;3.58;;;2.35;;
57778;SDS011;43608;49.486;9.640;2024-01-06T02:30:18;3.35;;;2.50;;
57778;SDS011;43608;49.486;9.640;2024-01-06T02:30:50;3.58;;;2.33;;
57778;SDS011;43608;49.486;9.640;2024-01-06T02:31:21;3.63;;;2.40;;
57778;SDS011;43608;49.486;9.640;2024-01-06T02:31:51;4.05;;;2.60;;
57778;SDS011;43608;49.486;9.640;2024-01-06T02:32:21;3.78;;;2.50;;
57778;SDS011;43608;49.486;9.640;2024-01-06T02:32:52;3.92;;;2.63;;
57778;SDS011;43608;49.486;9.640;2024-01-06T02:33:22;3.95;;;2.50;;
57778;SDS011;43608;49.486;9.640;2024-01-06T02:33:54;4.22;;;2.42;;
57778;SDS011;43608;49.486;9.640;2024-01-06T02:34:24;3.65;;;2.53;;
57778;SDS011;43608;49.486;9.640;2024-01-06T02:34:54;3.45;;;2.42;;
57778;SDS011;43608;49.486;9.640;2024-01-06T02:35:25;3.80;;;2.42;;
57778;SDS011;43608;49.486;9.640;2024-01-06T02:35:55;3.80;;;2.65;;
57778;SDS011;43608;49.486;9.640;2024-01-06T02:36:26;3.30;;;2.47;;
57778;SDS011;43608;49.486;9.640;2024-01-06T02:36:56;3.20;;;2.30;;
57778;SDS011;43608;49.486;9.640;2024-01-06T02:37:26;3.38;;;2.40;;
57778;SDS011;43608;49.486;9.640;2024-01-06T02:37:57;4.25;;;2.35;;
57778;SDS011;43608;49.486;9.640;2024-01-06T02:38:27;3.38;;;2.30;;
57778;SDS011;43608;49.486;9.640;2024-01-06T02:38:57;3.17;;;2.38;;
57778;SDS011;43608;49.486;9.640;2024-01-06T02:39:28;3.70;;;2.50;;
57778;SDS011;43608;49.486;9.640;2024-01-06T02:39:58;3.60;;;2.53;;
57778;SDS011;43608;49.486;9.640;2024-01-06T02:40:28;3.17;;;2.40;;
57778;SDS011;43608;49.486;9.640;2024-01-06T02:40:59;3.22;;;2.20;;
57778;SDS011;43608;49.486;9.640;2024-01-06T02:41:29;3.00;;;2.22;;
57778;SDS011;43608;49.486;9.640;2024-01-06T02:42:00;3.92;;;2.58;;
57778;SDS011;43608;49.486;9.640;2024-01-06T02:42:30;3.70;;;2.40;;
57778;SDS011;43608;49.486;9.640;2024-01-06T02:43:00;3.40;;;2.45;;
57778;SDS011;43608;49.486;9.640;2024-01-06T02:43:31;3.45;;;2.40;;
57778;SDS011;43608;49.486;9.640;2024-01-06T02:44:02;3.00;;;2.30;;
57778;SDS011;43608;49.486;9.640;2024-01-06T02:44:33;3.10;;;2.20;;
57778;SDS011;43608;49.486;9.640;2024-01-06T02:45:04;4.03;;;2.60;;
57778;SDS011;43608;49.486;9.640;2024-01-06T02:45:34;3.10;;;2.28;;
57778;SDS011;43608;49.486;9.640;2024-01-06T02:46:06;3.60;;;2.20;;
57778;SDS011;43608;49.486;9.640;2024-01-06T02:46:37;3.53;;;2.30;;
57778;SDS011;43608;49.486;9.640;2024-01-06T02:47:07;4.15;;;2.33;;
57778;SDS011;43608;49.486;9.640;2024-01-06T02:47:38;3.72;;;2.40;;
57778;SDS011;43608;49.486;9.640;2024-01-06T02:48:08;2.95;;;2.20;;
57778;SDS011;43608;49.486;9.640;2024-01-06T02:48:38;3.63;;;2.50;;
57778;SDS011;43608;49.486;9.640;2024-01-06T02:49:09;3.25;;;2.42;;
57778;SDS011;43608;49.486;9.640;2024-01-06T02:49:39;3.00;;;2.28;;
57778;SDS011;43608;49.486;9.640;2024-01-06T02:50:09;2.60;;;2.03;;
57778;SDS011;43608;49.486;9.640;2024-01-06T02:50:40;3.88;;;2.40;;
57778;SDS011;43608;49.486;9.640;2024-01-06T02:51:10;3.53;;;2.20;;
57778;SDS011;43608;49.486;9.640;2024-01-06T02:51:42;3.08;;;2.33;;
57778;SDS011;43608;49.486;9.640;2024-01-06T02:52:13;3.65;;;2.45;;
57778;SDS011;43608;49.486;9.640;2024-01-06T02:52:43;3.20;;;2.10;;
57778;SDS011;43608;49.486;9.640;2024-01-06T02:53:15;3.80;;;2.30;;
57778;SDS011;43608;49.486;9.640;2024-01-06T02:53:45;2.40;;;2.13;;
57778;SDS011;43608;49.486;9.640;2024-01-06T02:54:16;2.75;;;2.08;;
57778;SDS011;43608;49.486;9.640;2024-01-06T02:54:46;3.05;;;2.28;;
57778;SDS011;43608;49.486;9.640;2024-01-06T02:55:16;3.17;;;2.20;;
57778;SDS011;43608;49.486;9.640;2024-01-06T02:55:47;3.30;;;2.28;;
57778;SDS011;43608;49.486;9.640;2024-01-06T02:56:17;3.38;;;2.20;;
57778;SDS011;43608;49.486;9.640;2024-01-06T02:56:47;2.80;;;2.20;;
57778;SDS011;43608;49.486;9.640;2024-01-06T02:57:18;2.90;;;2.10;;
57778;SDS011;43608;49.486;9.640;2024-01-06T02:57:48;2.83;;;2.10;;
57778;SDS011;43608;49.486;9.640;2024-01-06T02:58:18;3.45;;;2.25;;
57778;SDS011;43608;49.486;9.640;2024-01-06T02:58:49;3.08;;;2.35;;
57778;SDS011;43608;49.486;9.640;2024-01-06T02:59:19;2.42;;;2.00;;
57778;SDS011;43608;49.486;9.640;2024-01-06T02:59:49;3.20;;;2.10;;
57778;SDS011;43608;49.486;9.640;2024-01-06T03:00:20;3.00;;;2.17;;
57778;SDS011;43608;49.486;9.640;2024-01-06T03:00:50;2.92;;;2.10;;
57778;SDS011;43608;49.486;9.640;2024-01-06T03:01:21;3.08;;;2.30;;
57778;SDS011;43608;49.486;9.640;2024-01-06T03:01:51;4.25;;;2.40;;
57778;SDS011;43608;49.486;9.640;2024-01-06T03:02:22;3.03;;;2.15;;
57778;SDS011;43608;49.486;9.640;2024-01-06T03:02:52;3.00;;;2.10;;
57778;SDS011;43608;49.486;9.640;2024-01-06T03:03:23;2.90;;;2.13;;
57778;SDS011;43608;49.486;9.640;2024-01-06T03:03:53;3.20;;;2.10;;
57778;SDS011;43608;49.486;9.640;2024-01-06T03:04:23;4.63;;;2.60;;